createdAt,value
2023-02-26T00:01:30.437Z,53.60
2023-02-26T00:04:00.700Z,53.80
2023-02-26T00:06:28.868Z,53.90
2023-02-26T00:11:24.043Z,54.10
2023-02-26T00:21:21.541Z,54.30
2023-02-26T00:26:16.046Z,54.30
2023-02-26T00:31:10.793Z,54.40
2023-02-26T00:36:24.162Z,54.60
2023-02-26T00:39:09.311Z,54.70
2023-02-26T00:41:36.531Z,54.80
2023-02-26T00:44:04.062Z,54.90
2023-02-26T00:46:54.318Z,54.90
2023-02-26T00:50:03.233Z,55.00
2023-02-26T00:52:41.326Z,55.10
2023-02-26T00:55:08.147Z,55.10
2023-02-26T01:07:26.314Z,55.50
2023-02-26T01:12:20.821Z,55.60
2023-02-26T01:14:48.171Z,55.40
2023-02-26T01:17:29.310Z,55.50
2023-02-26T01:20:05.423Z,55.40
2023-02-26T01:22:44.960Z,55.40
2023-02-26T01:25:16.238Z,55.50
2023-02-26T01:33:23.555Z,55.50
2023-02-26T01:35:53.532Z,55.60
2023-02-26T01:38:49.894Z,55.60
2023-02-26T01:41:51.747Z,55.60
2023-02-26T01:47:37.252Z,55.70
2023-02-26T01:50:19.255Z,55.80
2023-02-26T01:52:49.079Z,55.80
2023-02-26T01:55:19.246Z,55.90
2023-02-26T01:57:47.927Z,55.90
2023-02-26T02:00:16.689Z,55.90
2023-02-26T02:02:43.767Z,55.90
2023-02-26T02:05:21.412Z,55.90
2023-02-26T02:12:55.797Z,55.90
2023-02-26T02:15:40.358Z,55.90
2023-02-26T02:18:10.203Z,55.80
2023-02-26T02:20:55.817Z,55.70
2023-02-26T02:26:35.137Z,55.40
2023-02-26T02:29:14.250Z,55.30
2023-02-26T02:31:50.029Z,55.20
2023-02-26T02:34:22.416Z,55.10
2023-02-26T02:37:12.714Z,55.10
2023-02-26T02:39:47.734Z,54.90
2023-02-26T02:44:46.946Z,55.10
2023-02-26T02:47:17.124Z,54.90
2023-02-26T02:50:14.938Z,54.90
2023-02-26T02:53:04.781Z,54.90
2023-02-26T02:55:39.564Z,54.90
2023-02-26T02:58:18.235Z,54.80
2023-02-26T03:00:54.872Z,54.80
2023-02-26T03:03:43.812Z,54.90
2023-02-26T03:08:41.979Z,55.00
2023-02-26T03:11:09.789Z,55.00
2023-02-26T03:13:39.657Z,55.00
2023-02-26T03:21:12.280Z,55.10
2023-02-26T03:23:50.892Z,55.10
2023-02-26T03:26:46.893Z,55.10
2023-02-26T03:29:18.597Z,54.90
2023-02-26T03:31:59.263Z,55.00
2023-02-26T03:34:41.613Z,54.90
2023-02-26T03:37:37.800Z,54.90
2023-02-26T03:40:13.787Z,54.80
2023-02-26T03:42:51.170Z,54.80
2023-02-26T03:45:27.248Z,54.80
2023-02-26T03:47:54.370Z,55.30
2023-02-26T03:53:06.561Z,54.80
2023-02-26T03:55:51.104Z,54.80
2023-02-26T04:01:22.984Z,54.70
2023-02-26T04:04:05.835Z,54.70
2023-02-26T04:06:34.198Z,54.70
2023-02-26T04:11:32.515Z,54.80
2023-02-26T04:16:28.071Z,54.80
2023-02-26T04:18:55.229Z,54.80
2023-02-26T04:21:23.001Z,54.90
2023-02-26T04:23:50.091Z,55.00
2023-02-26T04:28:45.824Z,54.90
2023-02-26T04:33:40.738Z,55.10
2023-02-26T04:38:36.511Z,55.00
2023-02-26T04:46:20.011Z,55.50
2023-02-26T05:01:09.101Z,55.70
2023-02-26T05:13:25.198Z,56.10
2023-02-26T05:15:53.930Z,56.20
2023-02-26T05:20:55.569Z,56.40
2023-02-26T05:23:22.642Z,56.30
2023-02-26T05:25:49.596Z,56.30
2023-02-26T05:38:06.465Z,56.50
2023-02-26T05:50:22.374Z,56.80
2023-02-26T05:55:17.436Z,56.90
2023-02-26T06:00:12.538Z,57.00
2023-02-26T06:07:37.211Z,57.00
2023-02-26T06:17:26.022Z,56.90
2023-02-26T06:22:20.570Z,57.10
2023-02-26T06:24:47.630Z,57.20
2023-02-26T06:34:37.780Z,57.10
2023-02-26T06:39:32.661Z,57.20
2023-02-26T06:46:53.983Z,57.20
2023-02-26T07:06:32.549Z,57.50
2023-02-26T07:40:56.679Z,58.10
2023-02-26T07:43:24.327Z,58.20
2023-02-26T07:45:52.324Z,58.10
2023-02-26T07:58:08.364Z,58.30
2023-02-26T08:03:02.353Z,58.30
2023-02-26T08:07:57.138Z,58.30
2023-02-26T08:12:51.171Z,58.00
2023-02-26T08:15:18.037Z,58.00
2023-02-26T08:30:04.709Z,56.90
2023-02-26T08:34:59.487Z,56.80
2023-02-26T08:44:48.418Z,56.60
2023-02-26T08:47:28.189Z,56.60
2023-02-26T09:02:15.558Z,57.10
2023-02-26T09:14:31.676Z,56.20
2023-02-26T09:19:25.834Z,56.10
2023-02-26T09:24:19.877Z,55.90
2023-02-26T09:26:46.690Z,55.90
2023-02-26T09:31:41.517Z,55.80
2023-02-26T09:36:38.862Z,55.60
2023-02-26T09:39:08.678Z,55.50
2023-02-26T09:41:42.962Z,55.40
2023-02-26T09:44:28.397Z,55.40
2023-02-26T09:46:55.166Z,55.60
2023-02-26T09:49:25.087Z,55.40
2023-02-26T09:51:57.071Z,55.20
2023-02-26T09:54:28.029Z,55.10
2023-02-26T09:56:59.281Z,55.10
2023-02-26T09:59:30.582Z,54.90
2023-02-26T10:02:12.677Z,55.00
2023-02-26T10:07:27.115Z,54.80
2023-02-26T10:10:31.268Z,54.70
2023-02-26T10:15:35.322Z,54.50
2023-02-26T10:20:54.191Z,54.40
2023-02-26T10:23:29.190Z,54.40
2023-02-26T10:26:12.313Z,54.30
2023-02-26T10:28:55.232Z,54.30
2023-02-26T10:31:38.841Z,54.20
2023-02-26T10:34:43.386Z,54.10
2023-02-26T10:37:15.682Z,52.20
2023-02-26T10:40:06.565Z,54.00
2023-02-26T10:42:48.799Z,54.10
2023-02-26T10:45:24.466Z,53.90
2023-02-26T10:48:03.532Z,53.80
2023-02-26T10:50:31.364Z,53.70
2023-02-26T10:52:58.704Z,53.40
2023-02-26T10:55:34.691Z,53.40
2023-02-26T10:58:25.998Z,53.40
2023-02-26T11:00:54.745Z,53.50
2023-02-26T11:03:34.328Z,53.40
2023-02-26T11:06:03.799Z,53.50
2023-02-26T11:08:46.052Z,53.30
2023-02-26T11:11:41.799Z,53.10
2023-02-26T11:14:10.047Z,53.10
2023-02-26T11:16:45.689Z,52.80
2023-02-26T11:19:14.969Z,52.60
2023-02-26T11:21:45.258Z,51.70
2023-02-26T11:24:21.613Z,52.30
2023-02-26T11:26:50.537Z,52.20
2023-02-26T11:29:22.267Z,52.20
2023-02-26T11:31:55.337Z,52.30
2023-02-26T11:34:24.446Z,52.30
2023-02-26T11:36:55.923Z,52.30
2023-02-26T11:39:25.886Z,52.20
2023-02-26T11:41:57.452Z,52.20
2023-02-26T11:44:40.710Z,52.30
2023-02-26T11:47:13.832Z,52.20
2023-02-26T11:49:49.810Z,52.20
2023-02-26T11:52:19.734Z,52.50
2023-02-26T11:54:48.955Z,52.40
2023-02-26T11:57:19.637Z,52.40
2023-02-26T11:59:51.335Z,50.40
2023-02-26T12:02:21.377Z,52.30
2023-02-26T12:04:52.518Z,52.20
2023-02-26T12:07:21.433Z,52.00
2023-02-26T12:09:48.955Z,51.90
2023-02-26T12:12:51.627Z,49.90
2023-02-26T12:15:27.444Z,51.80
2023-02-26T12:17:57.106Z,51.70
2023-02-26T12:20:40.524Z,52.10
2023-02-26T12:23:22.289Z,51.20
2023-02-26T12:25:49.025Z,51.20
2023-02-26T12:29:11.289Z,51.70
2023-02-26T12:32:14.337Z,51.30
2023-02-26T12:35:05.219Z,51.30
2023-02-26T12:37:55.194Z,51.50
2023-02-26T12:40:36.353Z,51.40
2023-02-26T12:43:21.153Z,50.90
2023-02-26T12:46:08.587Z,51.40
2023-02-26T12:48:51.480Z,50.60
2023-02-26T12:51:25.004Z,51.00
2023-02-26T12:54:01.170Z,50.90
2023-02-26T12:56:39.907Z,51.10
2023-02-26T12:59:19.830Z,50.80
2023-02-26T13:02:29.064Z,50.90
2023-02-26T13:05:15.753Z,50.30
2023-02-26T13:08:09.286Z,50.50
2023-02-26T13:10:48.130Z,50.60
2023-02-26T13:13:37.953Z,50.20
2023-02-26T13:16:34.957Z,50.80
2023-02-26T13:19:01.664Z,50.30
2023-02-26T13:21:37.691Z,50.60
2023-02-26T13:24:12.046Z,50.50
2023-02-26T13:26:40.524Z,50.40
2023-02-26T13:29:19.412Z,50.60
2023-02-26T13:32:15.423Z,49.80
2023-02-26T13:34:48.377Z,50.30
2023-02-26T13:37:29.459Z,49.60
2023-02-26T13:40:14.553Z,49.70
2023-02-26T13:43:11.986Z,49.70
2023-02-26T13:46:03.926Z,49.80
2023-02-26T13:48:33.910Z,49.50
2023-02-26T13:51:28.793Z,50.60
2023-02-26T13:54:00.544Z,49.60
2023-02-26T13:56:33.400Z,49.30
2023-02-26T13:59:05.013Z,49.20
2023-02-26T14:01:48.807Z,49.50
2023-02-26T14:04:22.526Z,48.90
2023-02-26T14:06:57.249Z,49.10
2023-02-26T14:09:24.006Z,49.50
2023-02-26T14:12:18.521Z,49.40
2023-02-26T14:15:17.355Z,49.10
2023-02-26T14:18:00.892Z,48.90
2023-02-26T14:20:34.866Z,49.30
2023-02-26T14:23:10.988Z,50.10
2023-02-26T14:25:52.171Z,49.20
2023-02-26T14:28:18.934Z,49.00
2023-02-26T14:31:11.262Z,49.50
2023-02-26T14:34:09.973Z,49.90
2023-02-26T14:37:08.314Z,48.50
2023-02-26T14:39:40.209Z,48.50
2023-02-26T14:42:29.339Z,48.90
2023-02-26T14:45:21.043Z,48.40
2023-02-26T14:47:49.605Z,48.20
2023-02-26T14:50:19.528Z,48.50
2023-02-26T14:53:15.191Z,48.30
2023-02-26T14:55:56.644Z,48.10
2023-02-26T14:58:23.363Z,48.40
2023-02-26T15:01:09.342Z,48.60
2023-02-26T15:04:08.027Z,48.10
2023-02-26T15:06:46.914Z,47.50
2023-02-26T15:09:16.799Z,47.70
2023-02-26T15:12:12.355Z,47.20
2023-02-26T15:15:01.123Z,48.00
2023-02-26T15:18:01.929Z,47.70
2023-02-26T15:20:47.292Z,47.70
2023-02-26T15:23:17.082Z,48.30
2023-02-26T15:25:47.213Z,48.50
2023-02-26T15:28:23.243Z,49.90
2023-02-26T15:30:50.439Z,47.80
2023-02-26T15:33:20.428Z,47.80
2023-02-26T15:35:51.990Z,48.70
2023-02-26T15:38:19.897Z,49.00
2023-02-26T15:40:48.315Z,49.60
2023-02-26T15:43:20.633Z,49.90
2023-02-26T15:45:49.019Z,49.50
2023-02-26T15:48:24.843Z,48.90
2023-02-26T15:51:00.498Z,48.20
2023-02-26T15:53:35.394Z,47.00
2023-02-26T15:56:07.006Z,46.90
2023-02-26T15:58:45.046Z,46.30
2023-02-26T16:01:23.443Z,45.70
2023-02-26T16:03:53.164Z,45.50
2023-02-26T16:06:29.206Z,45.70
2023-02-26T16:08:56.235Z,45.50
2023-02-26T16:11:24.729Z,45.70
2023-02-26T16:13:53.448Z,45.70
2023-02-26T16:16:27.540Z,46.80
2023-02-26T16:18:55.966Z,45.30
2023-02-26T16:21:30.004Z,45.60
2023-02-26T16:23:57.957Z,46.60
2023-02-26T16:26:31.522Z,45.50
2023-02-26T16:29:02.292Z,45.40
2023-02-26T16:31:33.588Z,46.60
2023-02-26T16:34:07.935Z,45.10
2023-02-26T16:36:41.420Z,46.00
2023-02-26T16:39:08.180Z,45.20
2023-02-26T16:41:39.077Z,44.70
2023-02-26T16:44:31.903Z,45.20
2023-02-26T16:47:01.514Z,44.80
2023-02-26T16:49:34.885Z,45.30
2023-02-26T16:52:03.399Z,46.10
2023-02-26T16:54:36.769Z,45.20
2023-02-26T16:57:06.097Z,44.80
2023-02-26T16:59:36.290Z,45.20
2023-02-26T17:02:10.348Z,45.00
2023-02-26T17:04:38.210Z,44.60
2023-02-26T17:07:29.871Z,44.50
2023-02-26T17:10:24.904Z,44.70
2023-02-26T17:13:01.532Z,44.60
2023-02-26T17:15:36.282Z,45.00
2023-02-26T17:18:03.566Z,44.80
2023-02-26T17:20:31.702Z,45.40
2023-02-26T17:23:00.105Z,45.40
2023-02-26T17:25:30.754Z,44.80
2023-02-26T17:27:57.828Z,44.90
2023-02-26T17:32:52.574Z,44.80
2023-02-26T17:35:19.584Z,44.90
2023-02-26T17:37:47.146Z,45.00
2023-02-26T17:40:21.597Z,45.00
2023-02-26T17:42:49.105Z,44.90
2023-02-26T17:45:17.203Z,44.90
2023-02-26T17:47:44.542Z,45.00
2023-02-26T17:50:20.535Z,45.10
2023-02-26T17:52:47.312Z,45.20
2023-02-26T17:57:41.562Z,45.10
2023-02-26T18:00:10.468Z,45.50
2023-02-26T18:02:42.149Z,45.30
2023-02-26T18:05:09.736Z,45.20
2023-02-26T18:07:37.383Z,45.80
2023-02-26T18:10:04.862Z,45.20
2023-02-26T18:14:59.212Z,45.40
2023-02-26T18:17:29.680Z,45.40
2023-02-26T18:19:56.648Z,45.40
2023-02-26T18:24:53.379Z,45.50
2023-02-26T18:27:23.202Z,45.70
2023-02-26T18:29:50.336Z,46.10
2023-02-26T18:32:20.042Z,46.10
2023-02-26T18:34:47.094Z,46.00
2023-02-26T18:37:17.325Z,46.00
2023-02-26T18:42:22.844Z,46.20
2023-02-26T18:44:50.603Z,46.20
2023-02-26T18:47:18.970Z,46.30
2023-02-26T18:49:46.972Z,46.30
2023-02-26T18:52:14.174Z,46.50
2023-02-26T18:54:41.264Z,46.50
2023-02-26T18:57:09.206Z,45.20
2023-02-26T18:59:36.706Z,46.50
2023-02-26T19:02:06.858Z,46.50
2023-02-26T19:04:34.467Z,46.60
2023-02-26T19:07:01.602Z,46.70
2023-02-26T19:09:28.793Z,47.00
2023-02-26T19:11:57.103Z,46.90
2023-02-26T19:14:24.835Z,46.90
2023-02-26T19:16:51.643Z,46.80
2023-02-26T19:19:19.032Z,46.80
2023-02-26T19:24:13.976Z,46.80
2023-02-26T19:26:42.172Z,46.80
2023-02-26T19:29:13.269Z,46.70
2023-02-26T19:31:40.154Z,47.00
2023-02-26T19:36:34.554Z,47.20
2023-02-26T19:39:02.415Z,47.10
2023-02-26T19:41:29.629Z,46.90
2023-02-26T19:43:56.897Z,47.00
2023-02-26T19:46:24.055Z,47.00
2023-02-26T19:48:51.334Z,47.00
2023-02-26T19:53:45.842Z,47.00
2023-02-26T19:56:13.331Z,47.20
2023-02-26T20:03:35.738Z,47.30
2023-02-26T20:08:30.132Z,47.30
2023-02-26T20:10:58.194Z,47.40
2023-02-26T20:13:30.247Z,47.50
2023-02-26T20:16:00.860Z,47.70
2023-02-26T20:21:07.008Z,47.90
2023-02-26T20:23:37.026Z,47.80
2023-02-26T20:26:09.710Z,47.70
2023-02-26T20:31:05.042Z,48.00
2023-02-26T20:33:33.312Z,48.20
2023-02-26T20:36:00.867Z,48.30
2023-02-26T20:38:28.941Z,48.40
2023-02-26T20:40:56.822Z,48.30
2023-02-26T20:43:25.080Z,48.40
2023-02-26T20:45:55.118Z,48.50
2023-02-26T20:48:22.479Z,48.40
2023-02-26T20:50:53.323Z,48.50
2023-02-26T20:53:21.104Z,48.50
2023-02-26T20:58:15.856Z,48.60
2023-02-26T21:05:38.602Z,48.70
2023-02-26T21:10:32.918Z,48.80
2023-02-26T21:13:00.000Z,48.80
2023-02-26T21:15:27.304Z,48.70
2023-02-26T21:17:54.374Z,48.70
2023-02-26T21:20:22.284Z,48.90
2023-02-26T21:22:49.647Z,48.90
2023-02-26T21:25:18.792Z,48.80
2023-02-26T21:27:45.677Z,49.10
2023-02-26T21:30:13.627Z,49.30
2023-02-26T21:32:40.716Z,49.20
2023-02-26T21:35:09.286Z,49.30
2023-02-26T21:42:33.667Z,49.40
2023-02-26T21:45:00.657Z,49.20
2023-02-26T21:54:49.318Z,49.00
2023-02-26T22:02:11.899Z,49.00
2023-02-26T22:12:03.812Z,49.20
2023-02-26T22:16:57.976Z,49.00
2023-02-26T22:26:48.880Z,49.00
2023-02-26T22:29:19.004Z,49.00
2023-02-26T22:44:04.505Z,49.00
2023-02-26T22:46:32.507Z,49.00
2023-02-26T22:51:28.390Z,48.90
2023-02-26T23:01:17.825Z,49.10
2023-02-26T23:06:13.514Z,49.30
2023-02-26T23:08:40.597Z,49.40
2023-02-26T23:11:08.298Z,49.50
2023-02-26T23:16:05.218Z,49.40
2023-02-26T23:23:27.595Z,49.30
2023-02-26T23:30:52.202Z,49.30
2023-02-26T23:33:19.122Z,49.20
2023-02-26T23:35:45.915Z,49.30
2023-02-26T23:38:12.738Z,49.30
2023-02-26T23:40:39.541Z,49.40
2023-02-26T23:50:28.372Z,49.60
2023-02-26T23:57:50.128Z,49.60
